Terminal Aerodrome Forecast
Issued by NWS

Home | Current Version | Previous Version | Text Only | Print | Product List | Glossary On
Versions: 1 2 3 4 5 6 7 8 9 10 11 12 13 14 15 16
000
FTUS46 KMTR 281100
TAFOAK
TAF
KOAK 281121Z 2812/2918 VRB03KT P6SM FEW010 SCT150
      TEMPO 2812/2816 BKN008
     FM281800 28008KT P6SM FEW250
     FM282300 29015G20KT P6SM FEW250
     FM290300 28010KT P6SM FEW250
     FM290800 29005KT P6SM SKC=

USA.gov is the U.S. government's official web portal to all federal, state and local government web resources and services.